sensor_id;sensor_type;location;lat;lon;timestamp;temperature;humidity
5711;DHT22;61291;52.524;13.422;2022-08-11T00:01:47;18.40;74.00
5711;DHT22;61291;52.524;13.422;2022-08-11T00:04:14;18.50;74.10
5711;DHT22;61291;52.524;13.422;2022-08-11T00:06:41;18.50;74.30
5711;DHT22;61291;52.524;13.422;2022-08-11T00:09:15;18.70;74.00
5711;DHT22;61291;52.524;13.422;2022-08-11T00:11:47;18.70;73.80
5711;DHT22;61291;52.524;13.422;2022-08-11T00:14:19;18.70;73.80
5711;DHT22;61291;52.524;13.422;2022-08-11T00:19:30;18.50;73.90
5711;DHT22;61291;52.524;13.422;2022-08-11T00:21:57;18.50;74.10
5711;DHT22;61291;52.524;13.422;2022-08-11T00:24:24;18.40;74.30
5711;DHT22;61291;52.524;13.422;2022-08-11T00:26:51;18.20;74.50
5711;DHT22;61291;52.524;13.422;2022-08-11T00:29:17;18.20;75.00
5711;DHT22;61291;52.524;13.422;2022-08-11T00:31:51;18.10;75.60
5711;DHT22;61291;52.524;13.422;2022-08-11T00:34:37;18.10;75.20
5711;DHT22;61291;52.524;13.422;2022-08-11T00:37:09;18.10;75.30
5711;DHT22;61291;52.524;13.422;2022-08-11T00:39:45;18.10;76.10
5711;DHT22;61291;52.524;13.422;2022-08-11T00:42:28;18.00;75.50
5711;DHT22;61291;52.524;13.422;2022-08-11T00:52:58;17.80;76.70
5711;DHT22;61291;52.524;13.422;2022-08-11T00:56:04;17.90;76.70
5711;DHT22;61291;52.524;13.422;2022-08-11T01:04:39;17.90;76.40
5711;DHT22;61291;52.524;13.422;2022-08-11T01:08:18;18.00;77.00
5711;DHT22;61291;52.524;13.422;2022-08-11T01:10:50;17.90;76.90
5711;DHT22;61291;52.524;13.422;2022-08-11T01:19:55;17.80;77.30
5711;DHT22;61291;52.524;13.422;2022-08-11T01:28:23;17.60;77.30
5711;DHT22;61291;52.524;13.422;2022-08-11T01:33:52;17.50;77.70
5711;DHT22;61291;52.524;13.422;2022-08-11T01:36:57;17.40;78.50
5711;DHT22;61291;52.524;13.422;2022-08-11T01:39:37;17.50;78.40
5711;DHT22;61291;52.524;13.422;2022-08-11T01:45:41;17.40;78.70
5711;DHT22;61291;52.524;13.422;2022-08-11T01:51:21;17.40;78.90
5711;DHT22;61291;52.524;13.422;2022-08-11T01:54:08;17.40;78.90
5711;DHT22;61291;52.524;13.422;2022-08-11T01:57:20;17.40;79.20
5711;DHT22;61291;52.524;13.422;2022-08-11T01:59:56;17.40;79.40
5711;DHT22;61291;52.524;13.422;2022-08-11T02:02:39;17.30;79.20
5711;DHT22;61291;52.524;13.422;2022-08-11T02:05:51;17.30;79.40
5711;DHT22;61291;52.524;13.422;2022-08-11T02:08:44;17.20;79.40
5711;DHT22;61291;52.524;13.422;2022-08-11T02:14:30;17.10;79.50
5711;DHT22;61291;52.524;13.422;2022-08-11T02:22:57;17.20;79.90
5711;DHT22;61291;52.524;13.422;2022-08-11T02:25:52;17.20;80.20
5711;DHT22;61291;52.524;13.422;2022-08-11T02:31:06;17.20;80.00
5711;DHT22;61291;52.524;13.422;2022-08-11T02:34:04;17.10;80.40
5711;DHT22;61291;52.524;13.422;2022-08-11T02:36:42;17.10;80.40
5711;DHT22;61291;52.524;13.422;2022-08-11T02:39:12;17.10;80.30
5711;DHT22;61291;52.524;13.422;2022-08-11T02:41:50;17.00;80.20
5711;DHT22;61291;52.524;13.422;2022-08-11T02:44:56;17.00;80.50
5711;DHT22;61291;52.524;13.422;2022-08-11T02:50:32;16.90;80.70
5711;DHT22;61291;52.524;13.422;2022-08-11T02:53:25;16.90;80.70
5711;DHT22;61291;52.524;13.422;2022-08-11T02:56:07;16.90;81.20
5711;DHT22;61291;52.524;13.422;2022-08-11T02:58:54;16.90;81.20
5711;DHT22;61291;52.524;13.422;2022-08-11T03:02:09;16.80;81.30
5711;DHT22;61291;52.524;13.422;2022-08-11T03:12:43;16.70;81.60
5711;DHT22;61291;52.524;13.422;2022-08-11T03:15:39;16.80;82.10
5711;DHT22;61291;52.524;13.422;2022-08-11T03:18:48;16.80;81.80
5711;DHT22;61291;52.524;13.422;2022-08-11T03:21:22;16.80;82.30
5711;DHT22;61291;52.524;13.422;2022-08-11T03:24:00;16.80;81.90
5711;DHT22;61291;52.524;13.422;2022-08-11T03:27:01;16.70;81.90
5711;DHT22;61291;52.524;13.422;2022-08-11T03:32:06;16.70;82.10
5711;DHT22;61291;52.524;13.422;2022-08-11T03:34:35;16.60;81.90
5711;DHT22;61291;52.524;13.422;2022-08-11T03:37:40;16.60;82.20
5711;DHT22;61291;52.524;13.422;2022-08-11T03:48:42;16.70;82.20
5711;DHT22;61291;52.524;13.422;2022-08-11T03:51:24;16.70;82.20
5711;DHT22;61291;52.524;13.422;2022-08-11T03:54:09;16.70;82.30
5711;DHT22;61291;52.524;13.422;2022-08-11T03:59:55;16.60;82.20
5711;DHT22;61291;52.524;13.422;2022-08-11T04:05:26;16.50;82.40
5711;DHT22;61291;52.524;13.422;2022-08-11T04:08:20;16.50;82.50
5711;DHT22;61291;52.524;13.422;2022-08-11T04:11:15;16.50;82.80
5711;DHT22;61291;52.524;13.422;2022-08-11T04:17:34;16.50;83.20
5711;DHT22;61291;52.524;13.422;2022-08-11T04:26:06;16.60;83.20
5711;DHT22;61291;52.524;13.422;2022-08-11T04:32:40;16.80;82.70
5711;DHT22;61291;52.524;13.422;2022-08-11T04:41:51;17.10;81.70
5711;DHT22;61291;52.524;13.422;2022-08-11T04:45:04;17.20;81.00
5711;DHT22;61291;52.524;13.422;2022-08-11T04:48:01;17.40;80.80
5711;DHT22;61291;52.524;13.422;2022-08-11T04:51:17;17.50;80.70
5711;DHT22;61291;52.524;13.422;2022-08-11T04:57:37;17.70;79.90
5711;DHT22;61291;52.524;13.422;2022-08-11T05:00:29;17.80;79.60
5711;DHT22;61291;52.524;13.422;2022-08-11T05:06:56;18.30;78.50
5711;DHT22;61291;52.524;13.422;2022-08-11T05:10:12;18.40;78.20
5711;DHT22;61291;52.524;13.422;2022-08-11T05:12:48;18.60;77.80
5711;DHT22;61291;52.524;13.422;2022-08-11T05:15:18;18.70;77.50
5711;DHT22;61291;52.524;13.422;2022-08-11T05:18:13;18.80;77.30
5711;DHT22;61291;52.524;13.422;2022-08-11T05:21:07;19.00;76.60
5711;DHT22;61291;52.524;13.422;2022-08-11T05:24:03;19.10;76.10
5711;DHT22;61291;52.524;13.422;2022-08-11T05:26:51;19.40;75.40
5711;DHT22;61291;52.524;13.422;2022-08-11T05:29:47;19.70;75.20
5711;DHT22;61291;52.524;13.422;2022-08-11T05:32:41;20.00;74.60
5711;DHT22;61291;52.524;13.422;2022-08-11T05:35:46;20.80;73.60
5711;DHT22;61291;52.524;13.422;2022-08-11T05:38:21;21.20;71.70
5711;DHT22;61291;52.524;13.422;2022-08-11T05:41:07;21.10;71.70
5711;DHT22;61291;52.524;13.422;2022-08-11T05:43:54;21.30;71.40
5711;DHT22;61291;52.524;13.422;2022-08-11T05:46:41;21.40;71.00
5711;DHT22;61291;52.524;13.422;2022-08-11T05:49:31;21.40;70.60
5711;DHT22;61291;52.524;13.422;2022-08-11T05:52:20;21.60;70.40
5711;DHT22;61291;52.524;13.422;2022-08-11T05:55:06;21.80;70.00
5711;DHT22;61291;52.524;13.422;2022-08-11T05:57:56;22.00;69.20
5711;DHT22;61291;52.524;13.422;2022-08-11T06:00:23;22.30;67.60
5711;DHT22;61291;52.524;13.422;2022-08-11T06:02:52;22.80;67.50
5711;DHT22;61291;52.524;13.422;2022-08-11T06:05:20;23.90;66.60
5711;DHT22;61291;52.524;13.422;2022-08-11T06:07:47;25.60;64.50
5711;DHT22;61291;52.524;13.422;2022-08-11T06:10:13;25.80;62.80
5711;DHT22;61291;52.524;13.422;2022-08-11T06:12:52;25.80;62.30
5711;DHT22;61291;52.524;13.422;2022-08-11T06:15:18;25.80;62.70
5711;DHT22;61291;52.524;13.422;2022-08-11T06:17:45;25.80;61.20
5711;DHT22;61291;52.524;13.422;2022-08-11T06:20:13;26.00;61.40
5711;DHT22;61291;52.524;13.422;2022-08-11T06:22:42;25.90;61.00
5711;DHT22;61291;52.524;13.422;2022-08-11T06:25:10;25.20;61.50
5711;DHT22;61291;52.524;13.422;2022-08-11T06:27:37;24.90;62.20
5711;DHT22;61291;52.524;13.422;2022-08-11T06:30:05;24.90;62.50
5711;DHT22;61291;52.524;13.422;2022-08-11T06:32:40;24.50;62.70
5711;DHT22;61291;52.524;13.422;2022-08-11T06:38:05;24.40;63.30
5711;DHT22;61291;52.524;13.422;2022-08-11T06:40:41;26.30;62.20
5711;DHT22;61291;52.524;13.422;2022-08-11T06:43:22;27.70;60.30
5711;DHT22;61291;52.524;13.422;2022-08-11T06:46:00;28.20;59.00
5711;DHT22;61291;52.524;13.422;2022-08-11T06:48:30;28.80;58.40
5711;DHT22;61291;52.524;13.422;2022-08-11T06:51:01;29.40;57.90
5711;DHT22;61291;52.524;13.422;2022-08-11T06:53:51;29.70;57.20
5711;DHT22;61291;52.524;13.422;2022-08-11T06:56:27;30.10;55.70
5711;DHT22;61291;52.524;13.422;2022-08-11T06:59:14;30.30;55.90
5711;DHT22;61291;52.524;13.422;2022-08-11T07:02:14;30.60;55.80
5711;DHT22;61291;52.524;13.422;2022-08-11T07:04:45;30.50;55.20
5711;DHT22;61291;52.524;13.422;2022-08-11T07:10:26;30.40;54.80
5711;DHT22;61291;52.524;13.422;2022-08-11T07:13:15;30.40;54.80
5711;DHT22;61291;52.524;13.422;2022-08-11T07:16:01;30.20;54.80
5711;DHT22;61291;52.524;13.422;2022-08-11T07:18:31;30.00;55.00
5711;DHT22;61291;52.524;13.422;2022-08-11T07:21:26;29.90;55.10
5711;DHT22;61291;52.524;13.422;2022-08-11T07:24:36;29.80;55.00
5711;DHT22;61291;52.524;13.422;2022-08-11T07:27:19;29.70;55.10
5711;DHT22;61291;52.524;13.422;2022-08-11T07:30:09;29.50;55.40
5711;DHT22;61291;52.524;13.422;2022-08-11T07:32:45;29.40;55.40
5711;DHT22;61291;52.524;13.422;2022-08-11T07:35:16;29.40;55.40
5711;DHT22;61291;52.524;13.422;2022-08-11T07:37:46;29.40;55.60
5711;DHT22;61291;52.524;13.422;2022-08-11T07:40:12;29.40;55.80
5711;DHT22;61291;52.524;13.422;2022-08-11T07:42:39;29.40;55.40
5711;DHT22;61291;52.524;13.422;2022-08-11T07:45:11;29.20;55.30
5711;DHT22;61291;52.524;13.422;2022-08-11T07:47:56;29.00;55.30
5711;DHT22;61291;52.524;13.422;2022-08-11T07:50:42;28.80;55.50
5711;DHT22;61291;52.524;13.422;2022-08-11T07:53:28;28.60;55.90
5711;DHT22;61291;52.524;13.422;2022-08-11T07:55:56;28.50;55.90
5711;DHT22;61291;52.524;13.422;2022-08-11T07:58:24;28.50;56.10
5711;DHT22;61291;52.524;13.422;2022-08-11T08:01:10;28.30;56.10
5711;DHT22;61291;52.524;13.422;2022-08-11T08:03:56;27.80;56.30
5711;DHT22;61291;52.524;13.422;2022-08-11T08:06:41;27.50;56.50
5711;DHT22;61291;52.524;13.422;2022-08-11T08:09:25;27.20;56.50
5711;DHT22;61291;52.524;13.422;2022-08-11T08:12:11;27.00;56.80
5711;DHT22;61291;52.524;13.422;2022-08-11T08:14:56;26.80;57.00
5711;DHT22;61291;52.524;13.422;2022-08-11T08:17:42;26.50;57.20
5711;DHT22;61291;52.524;13.422;2022-08-11T08:20:20;26.50;57.50
5711;DHT22;61291;52.524;13.422;2022-08-11T08:22:51;26.40;57.70
5711;DHT22;61291;52.524;13.422;2022-08-11T08:25:23;26.30;57.80
5711;DHT22;61291;52.524;13.422;2022-08-11T08:27:50;26.30;57.80
5711;DHT22;61291;52.524;13.422;2022-08-11T08:30:16;26.30;57.60
5711;DHT22;61291;52.524;13.422;2022-08-11T08:33:01;26.30;57.60
5711;DHT22;61291;52.524;13.422;2022-08-11T08:35:28;26.30;57.70
5711;DHT22;61291;52.524;13.422;2022-08-11T08:37:57;26.30;57.70
5711;DHT22;61291;52.524;13.422;2022-08-11T08:40:24;26.30;57.70
5711;DHT22;61291;52.524;13.422;2022-08-11T08:42:55;26.30;57.60
5711;DHT22;61291;52.524;13.422;2022-08-11T08:45:22;26.40;57.50
5711;DHT22;61291;52.524;13.422;2022-08-11T08:47:59;26.40;57.40
5711;DHT22;61291;52.524;13.422;2022-08-11T08:50:28;26.40;57.60
5711;DHT22;61291;52.524;13.422;2022-08-11T08:53:19;26.40;57.50
5711;DHT22;61291;52.524;13.422;2022-08-11T08:55:45;26.40;57.30
5711;DHT22;61291;52.524;13.422;2022-08-11T08:58:11;26.50;56.90
5711;DHT22;61291;52.524;13.422;2022-08-11T09:00:40;26.50;56.80
5711;DHT22;61291;52.524;13.422;2022-08-11T09:03:07;26.60;56.90
5711;DHT22;61291;52.524;13.422;2022-08-11T09:05:33;26.60;56.80
5711;DHT22;61291;52.524;13.422;2022-08-11T09:07:59;26.60;56.80
5711;DHT22;61291;52.524;13.422;2022-08-11T09:10:25;26.70;56.70
5711;DHT22;61291;52.524;13.422;2022-08-11T09:12:55;26.70;56.60
5711;DHT22;61291;52.524;13.422;2022-08-11T09:15:22;26.70;56.50
5711;DHT22;61291;52.524;13.422;2022-08-11T09:17:51;26.80;56.30
5711;DHT22;61291;52.524;13.422;2022-08-11T09:22:46;26.80;56.10
5711;DHT22;61291;52.524;13.422;2022-08-11T09:25:32;26.80;56.20
5711;DHT22;61291;52.524;13.422;2022-08-11T09:28:18;26.90;56.20
5711;DHT22;61291;52.524;13.422;2022-08-11T09:30:49;26.80;56.20
5711;DHT22;61291;52.524;13.422;2022-08-11T09:33:21;26.90;56.00
5711;DHT22;61291;52.524;13.422;2022-08-11T09:35:48;27.00;55.70
5711;DHT22;61291;52.524;13.422;2022-08-11T09:38:16;27.00;55.50
5711;DHT22;61291;52.524;13.422;2022-08-11T09:41:03;27.10;55.70
5711;DHT22;61291;52.524;13.422;2022-08-11T09:43:30;27.10;55.80
5711;DHT22;61291;52.524;13.422;2022-08-11T09:46:15;27.10;55.60
5711;DHT22;61291;52.524;13.422;2022-08-11T09:48:44;27.20;55.00
5711;DHT22;61291;52.524;13.422;2022-08-11T09:51:11;27.20;54.70
5711;DHT22;61291;52.524;13.422;2022-08-11T09:53:40;27.20;54.90
5711;DHT22;61291;52.524;13.422;2022-08-11T09:56:14;27.20;54.50
5711;DHT22;61291;52.524;13.422;2022-08-11T09:58:58;27.30;54.60
5711;DHT22;61291;52.524;13.422;2022-08-11T10:01:30;27.10;54.10
5711;DHT22;61291;52.524;13.422;2022-08-11T10:06:52;27.40;54.60
5711;DHT22;61291;52.524;13.422;2022-08-11T10:09:51;27.60;53.80
5711;DHT22;61291;52.524;13.422;2022-08-11T10:12:27;27.90;53.40
5711;DHT22;61291;52.524;13.422;2022-08-11T10:15:11;28.00;53.50
5711;DHT22;61291;52.524;13.422;2022-08-11T10:18:17;28.20;53.40
5711;DHT22;61291;52.524;13.422;2022-08-11T10:21:08;28.40;53.40
5711;DHT22;61291;52.524;13.422;2022-08-11T10:23:36;28.60;53.30
5711;DHT22;61291;52.524;13.422;2022-08-11T10:26:22;28.60;53.00
5711;DHT22;61291;52.524;13.422;2022-08-11T10:29:09;28.80;52.90
5711;DHT22;61291;52.524;13.422;2022-08-11T10:31:55;28.60;52.50
5711;DHT22;61291;52.524;13.422;2022-08-11T10:34:40;28.60;52.10
5711;DHT22;61291;52.524;13.422;2022-08-11T10:37:07;28.30;51.70
5711;DHT22;61291;52.524;13.422;2022-08-11T10:39:33;28.20;51.80
5711;DHT22;61291;52.524;13.422;2022-08-11T10:42:00;28.30;52.10
5711;DHT22;61291;52.524;13.422;2022-08-11T10:44:49;28.10;52.00
5711;DHT22;61291;52.524;13.422;2022-08-11T10:47:14;28.10;51.70
5711;DHT22;61291;52.524;13.422;2022-08-11T10:50:03;28.30;51.80
5711;DHT22;61291;52.524;13.422;2022-08-11T10:52:50;28.50;51.90
5711;DHT22;61291;52.524;13.422;2022-08-11T10:55:36;28.50;51.90
5711;DHT22;61291;52.524;13.422;2022-08-11T10:58:21;28.50;51.90
5711;DHT22;61291;52.524;13.422;2022-08-11T11:01:05;28.50;52.10
5711;DHT22;61291;52.524;13.422;2022-08-11T11:03:31;28.50;52.10
5711;DHT22;61291;52.524;13.422;2022-08-11T11:06:17;28.60;51.70
5711;DHT22;61291;52.524;13.422;2022-08-11T11:08:52;28.70;51.60
5711;DHT22;61291;52.524;13.422;2022-08-11T11:11:23;28.70;51.60
5711;DHT22;61291;52.524;13.422;2022-08-11T11:14:09;28.70;51.70
5711;DHT22;61291;52.524;13.422;2022-08-11T11:16:57;28.70;51.80
5711;DHT22;61291;52.524;13.422;2022-08-11T11:19:38;28.70;51.50
5711;DHT22;61291;52.524;13.422;2022-08-11T11:22:05;28.70;51.10
5711;DHT22;61291;52.524;13.422;2022-08-11T11:25:22;28.90;51.20
5711;DHT22;61291;52.524;13.422;2022-08-11T11:31:01;29.30;50.60
5711;DHT22;61291;52.524;13.422;2022-08-11T11:33:43;29.50;49.80
5711;DHT22;61291;52.524;13.422;2022-08-11T11:36:25;29.60;50.00
5711;DHT22;61291;52.524;13.422;2022-08-11T11:38:52;29.50;49.30
5711;DHT22;61291;52.524;13.422;2022-08-11T11:41:22;29.20;49.30
5711;DHT22;61291;52.524;13.422;2022-08-11T11:43:54;29.10;49.00
5711;DHT22;61291;52.524;13.422;2022-08-11T11:46:26;29.00;49.50
5711;DHT22;61291;52.524;13.422;2022-08-11T11:48:53;29.00;49.80
5711;DHT22;61291;52.524;13.422;2022-08-11T11:51:21;28.90;50.00
5711;DHT22;61291;52.524;13.422;2022-08-11T11:53:47;28.90;50.00
5711;DHT22;61291;52.524;13.422;2022-08-11T11:56:14;29.00;49.90
5711;DHT22;61291;52.524;13.422;2022-08-11T11:58:40;29.10;49.80
5711;DHT22;61291;52.524;13.422;2022-08-11T12:01:26;29.10;50.00
5711;DHT22;61291;52.524;13.422;2022-08-11T12:03:53;29.00;49.90
5711;DHT22;61291;52.524;13.422;2022-08-11T12:06:21;29.00;50.10
5711;DHT22;61291;52.524;13.422;2022-08-11T12:08:49;28.90;49.80
5711;DHT22;61291;52.524;13.422;2022-08-11T12:11:16;28.90;49.70
5711;DHT22;61291;52.524;13.422;2022-08-11T12:14:03;28.90;50.00
5711;DHT22;61291;52.524;13.422;2022-08-11T12:16:29;29.00;50.00
5711;DHT22;61291;52.524;13.422;2022-08-11T12:18:57;29.00;49.90
5711;DHT22;61291;52.524;13.422;2022-08-11T12:21:26;28.90;49.70
5711;DHT22;61291;52.524;13.422;2022-08-11T12:23:54;28.90;49.70
5711;DHT22;61291;52.524;13.422;2022-08-11T12:26:39;28.80;49.20
5711;DHT22;61291;52.524;13.422;2022-08-11T12:29:16;28.70;48.90
5711;DHT22;61291;52.524;13.422;2022-08-11T12:31:44;28.60;49.20
5711;DHT22;61291;52.524;13.422;2022-08-11T12:34:12;28.60;49.10
5711;DHT22;61291;52.524;13.422;2022-08-11T12:36:42;28.50;49.10
5711;DHT22;61291;52.524;13.422;2022-08-11T12:39:23;28.50;49.30
5711;DHT22;61291;52.524;13.422;2022-08-11T12:42:10;28.50;49.50
5711;DHT22;61291;52.524;13.422;2022-08-11T12:44:57;28.40;49.70
5711;DHT22;61291;52.524;13.422;2022-08-11T12:47:47;28.30;49.60
5711;DHT22;61291;52.524;13.422;2022-08-11T12:50:33;28.30;49.80
5711;DHT22;61291;52.524;13.422;2022-08-11T12:53:23;28.30;50.30
5711;DHT22;61291;52.524;13.422;2022-08-11T12:55:50;28.30;50.10
5711;DHT22;61291;52.524;13.422;2022-08-11T12:58:40;28.30;50.10
5711;DHT22;61291;52.524;13.422;2022-08-11T13:01:06;28.40;50.10
5711;DHT22;61291;52.524;13.422;2022-08-11T13:03:50;28.40;49.90
5711;DHT22;61291;52.524;13.422;2022-08-11T13:06:35;28.50;49.80
5711;DHT22;61291;52.524;13.422;2022-08-11T13:09:02;28.60;50.00
5711;DHT22;61291;52.524;13.422;2022-08-11T13:11:29;28.50;50.00
5711;DHT22;61291;52.524;13.422;2022-08-11T13:14:14;28.40;50.10
5711;DHT22;61291;52.524;13.422;2022-08-11T13:16:41;28.40;49.80
5711;DHT22;61291;52.524;13.422;2022-08-11T13:19:26;28.40;49.50
5711;DHT22;61291;52.524;13.422;2022-08-11T13:21:52;28.40;49.60
5711;DHT22;61291;52.524;13.422;2022-08-11T13:24:18;28.40;49.70
5711;DHT22;61291;52.524;13.422;2022-08-11T13:26:44;28.30;49.50
5711;DHT22;61291;52.524;13.422;2022-08-11T13:29:11;28.30;49.90
5711;DHT22;61291;52.524;13.422;2022-08-11T13:31:39;28.30;49.90
5711;DHT22;61291;52.524;13.422;2022-08-11T13:34:07;28.30;49.60
5711;DHT22;61291;52.524;13.422;2022-08-11T13:36:33;28.30;49.50
5711;DHT22;61291;52.524;13.422;2022-08-11T13:39:01;28.40;49.50
5711;DHT22;61291;52.524;13.422;2022-08-11T13:41:27;28.40;49.60
5711;DHT22;61291;52.524;13.422;2022-08-11T13:44:04;28.40;49.40
5711;DHT22;61291;52.524;13.422;2022-08-11T13:46:31;28.40;49.50
5711;DHT22;61291;52.524;13.422;2022-08-11T13:48:57;28.40;49.10
5711;DHT22;61291;52.524;13.422;2022-08-11T13:51:23;28.40;48.60
5711;DHT22;61291;52.524;13.422;2022-08-11T13:53:57;28.40;48.40
5711;DHT22;61291;52.524;13.422;2022-08-11T13:56:24;28.50;48.10
5711;DHT22;61291;52.524;13.422;2022-08-11T13:58:51;28.50;48.20
5711;DHT22;61291;52.524;13.422;2022-08-11T14:01:18;28.50;47.50
5711;DHT22;61291;52.524;13.422;2022-08-11T14:03:46;28.50;47.80
5711;DHT22;61291;52.524;13.422;2022-08-11T14:06:12;28.50;47.60
5711;DHT22;61291;52.524;13.422;2022-08-11T14:08:39;28.60;47.80
5711;DHT22;61291;52.524;13.422;2022-08-11T14:11:06;28.60;47.70
5711;DHT22;61291;52.524;13.422;2022-08-11T14:13:51;28.70;47.30
5711;DHT22;61291;52.524;13.422;2022-08-11T14:16:39;28.70;47.10
5711;DHT22;61291;52.524;13.422;2022-08-11T14:19:06;28.70;46.80
5711;DHT22;61291;52.524;13.422;2022-08-11T14:21:37;28.70;47.00
5711;DHT22;61291;52.524;13.422;2022-08-11T14:24:23;28.60;46.70
5711;DHT22;61291;52.524;13.422;2022-08-11T14:26:50;28.60;46.40
5711;DHT22;61291;52.524;13.422;2022-08-11T14:29:19;28.60;46.50
5711;DHT22;61291;52.524;13.422;2022-08-11T14:31:51;28.50;46.70
5711;DHT22;61291;52.524;13.422;2022-08-11T14:34:19;28.40;46.40
5711;DHT22;61291;52.524;13.422;2022-08-11T14:36:49;28.50;46.50
5711;DHT22;61291;52.524;13.422;2022-08-11T14:39:18;28.50;46.90
5711;DHT22;61291;52.524;13.422;2022-08-11T14:41:47;28.50;46.30
5711;DHT22;61291;52.524;13.422;2022-08-11T14:44:35;28.50;46.20
5711;DHT22;61291;52.524;13.422;2022-08-11T14:47:21;28.60;46.10
5711;DHT22;61291;52.524;13.422;2022-08-11T14:49:48;28.70;46.10
5711;DHT22;61291;52.524;13.422;2022-08-11T14:52:17;28.60;46.00
5711;DHT22;61291;52.524;13.422;2022-08-11T14:54:46;28.60;45.60
5711;DHT22;61291;52.524;13.422;2022-08-11T14:57:35;28.60;45.50
5711;DHT22;61291;52.524;13.422;2022-08-11T15:00:04;28.50;45.40
5711;DHT22;61291;52.524;13.422;2022-08-11T15:02:33;28.50;45.50
5711;DHT22;61291;52.524;13.422;2022-08-11T15:05:20;28.50;45.80
5711;DHT22;61291;52.524;13.422;2022-08-11T15:07:46;28.40;45.90
5711;DHT22;61291;52.524;13.422;2022-08-11T15:10:12;28.40;45.70
5711;DHT22;61291;52.524;13.422;2022-08-11T15:12:41;28.40;45.50
5711;DHT22;61291;52.524;13.422;2022-08-11T15:15:07;28.40;45.50
5711;DHT22;61291;52.524;13.422;2022-08-11T15:17:55;28.30;45.60
5711;DHT22;61291;52.524;13.422;2022-08-11T15:20:22;28.30;45.50
5711;DHT22;61291;52.524;13.422;2022-08-11T15:23:08;28.40;45.70
5711;DHT22;61291;52.524;13.422;2022-08-11T15:25:55;28.40;45.60
5711;DHT22;61291;52.524;13.422;2022-08-11T15:28:22;28.40;45.20
5711;DHT22;61291;52.524;13.422;2022-08-11T15:31:07;28.40;45.10
5711;DHT22;61291;52.524;13.422;2022-08-11T15:33:54;28.40;45.40
5711;DHT22;61291;52.524;13.422;2022-08-11T15:36:39;28.30;44.90
5711;DHT22;61291;52.524;13.422;2022-08-11T15:39:31;28.30;44.80
5711;DHT22;61291;52.524;13.422;2022-08-11T15:42:02;28.40;44.90
5711;DHT22;61291;52.524;13.422;2022-08-11T15:44:53;28.30;44.90
5711;DHT22;61291;52.524;13.422;2022-08-11T15:47:48;28.20;45.10
5711;DHT22;61291;52.524;13.422;2022-08-11T15:50:17;28.20;44.70
5711;DHT22;61291;52.524;13.422;2022-08-11T15:52:57;28.20;44.80
5711;DHT22;61291;52.524;13.422;2022-08-11T15:55:23;28.20;44.70
5711;DHT22;61291;52.524;13.422;2022-08-11T15:57:51;28.20;44.70
5711;DHT22;61291;52.524;13.422;2022-08-11T16:00:38;28.20;44.60
5711;DHT22;61291;52.524;13.422;2022-08-11T16:03:24;28.40;44.40
5711;DHT22;61291;52.524;13.422;2022-08-11T16:06:29;28.40;44.50
5711;DHT22;61291;52.524;13.422;2022-08-11T16:08:56;28.30;43.90
5711;DHT22;61291;52.524;13.422;2022-08-11T16:11:24;28.30;43.80
5711;DHT22;61291;52.524;13.422;2022-08-11T16:13:52;28.20;43.70
5711;DHT22;61291;52.524;13.422;2022-08-11T16:16:37;28.20;43.80
5711;DHT22;61291;52.524;13.422;2022-08-11T16:19:04;28.30;43.90
5711;DHT22;61291;52.524;13.422;2022-08-11T16:21:36;28.20;44.00
5711;DHT22;61291;52.524;13.422;2022-08-11T16:24:07;28.30;44.30
5711;DHT22;61291;52.524;13.422;2022-08-11T16:26:35;28.30;44.30
5711;DHT22;61291;52.524;13.422;2022-08-11T16:29:02;28.30;44.00
5711;DHT22;61291;52.524;13.422;2022-08-11T16:31:28;28.30;43.90
5711;DHT22;61291;52.524;13.422;2022-08-11T16:33:55;28.30;43.90
5711;DHT22;61291;52.524;13.422;2022-08-11T16:36:23;28.10;43.60
5711;DHT22;61291;52.524;13.422;2022-08-11T16:39:09;28.20;43.80
5711;DHT22;61291;52.524;13.422;2022-08-11T16:41:38;28.10;43.80
5711;DHT22;61291;52.524;13.422;2022-08-11T16:44:24;28.10;44.00
5711;DHT22;61291;52.524;13.422;2022-08-11T16:47:12;28.20;43.90
5711;DHT22;61291;52.524;13.422;2022-08-11T16:49:48;28.20;43.90
5711;DHT22;61291;52.524;13.422;2022-08-11T16:52:16;28.20;43.90
5711;DHT22;61291;52.524;13.422;2022-08-11T16:54:42;28.20;43.90
5711;DHT22;61291;52.524;13.422;2022-08-11T16:57:11;28.20;43.90
5711;DHT22;61291;52.524;13.422;2022-08-11T17:00:00;28.30;43.80
5711;DHT22;61291;52.524;13.422;2022-08-11T17:02:32;28.30;43.70
5711;DHT22;61291;52.524;13.422;2022-08-11T17:05:20;28.30;43.70
5711;DHT22;61291;52.524;13.422;2022-08-11T17:08:07;28.20;43.70
5711;DHT22;61291;52.524;13.422;2022-08-11T17:10:58;28.10;43.80
5711;DHT22;61291;52.524;13.422;2022-08-11T17:16:16;27.90;43.80
5711;DHT22;61291;52.524;13.422;2022-08-11T17:18:49;27.80;43.90
5711;DHT22;61291;52.524;13.422;2022-08-11T17:23:49;27.80;43.80
5711;DHT22;61291;52.524;13.422;2022-08-11T17:26:22;27.80;44.00
5711;DHT22;61291;52.524;13.422;2022-08-11T17:28:51;27.70;44.10
5711;DHT22;61291;52.524;13.422;2022-08-11T17:31:20;27.60;44.20
5711;DHT22;61291;52.524;13.422;2022-08-11T17:34:06;27.50;44.30
5711;DHT22;61291;52.524;13.422;2022-08-11T17:36:52;27.30;44.50
5711;DHT22;61291;52.524;13.422;2022-08-11T17:39:22;27.10;44.50
5711;DHT22;61291;52.524;13.422;2022-08-11T17:41:48;27.10;44.60
5711;DHT22;61291;52.524;13.422;2022-08-11T17:44:33;27.00;44.70
5711;DHT22;61291;52.524;13.422;2022-08-11T17:47:18;27.00;45.40
5711;DHT22;61291;52.524;13.422;2022-08-11T17:50:04;27.00;44.90
5711;DHT22;61291;52.524;13.422;2022-08-11T17:52:30;27.10;45.00
5711;DHT22;61291;52.524;13.422;2022-08-11T17:55:15;27.30;44.90
5711;DHT22;61291;52.524;13.422;2022-08-11T17:58:01;27.40;44.80
5711;DHT22;61291;52.524;13.422;2022-08-11T18:00:45;27.30;44.90
5711;DHT22;61291;52.524;13.422;2022-08-11T18:03:13;27.10;45.20
5711;DHT22;61291;52.524;13.422;2022-08-11T18:05:57;26.80;45.40
5711;DHT22;61291;52.524;13.422;2022-08-11T18:08:23;26.50;45.80
5711;DHT22;61291;52.524;13.422;2022-08-11T18:11:09;26.40;46.10
5711;DHT22;61291;52.524;13.422;2022-08-11T18:13:54;26.10;46.20
5711;DHT22;61291;52.524;13.422;2022-08-11T18:16:40;25.90;46.50
5711;DHT22;61291;52.524;13.422;2022-08-11T18:19:24;25.70;46.70
5711;DHT22;61291;52.524;13.422;2022-08-11T18:22:12;25.50;47.00
5711;DHT22;61291;52.524;13.422;2022-08-11T18:25:05;25.40;47.20
5711;DHT22;61291;52.524;13.422;2022-08-11T18:27:53;25.20;47.40
5711;DHT22;61291;52.524;13.422;2022-08-11T18:30:39;25.00;47.50
5711;DHT22;61291;52.524;13.422;2022-08-11T18:33:26;24.90;47.80
5711;DHT22;61291;52.524;13.422;2022-08-11T18:36:19;24.80;47.90
5711;DHT22;61291;52.524;13.422;2022-08-11T18:39:08;24.70;48.20
5711;DHT22;61291;52.524;13.422;2022-08-11T18:41:53;24.60;48.30
5711;DHT22;61291;52.524;13.422;2022-08-11T18:44:41;24.50;48.30